Time;durP1;ratioP1;P1;durP2;ratioP2;P2;SDS_P1;SDS_P2;PMS_P1;PMS_P2;Temp;Humidity;BMP_temperature;BMP_pressure;BME280_temperature;BME280_humidity;BME280_pressure;Samples;Min_cycle;Max_cycle;Signal;HPM_P1;HPM_P2
2023/10/18 00:02:45;;;;;;;1.85;0.65;;;;;;;5.22;69.05;98771.53;5129656;27;20035;-62
2023/10/18 00:05:12;;;;;;;4.93;0.70;;;;;;;5.32;68.56;98791.09;5133675;27;20023;-62
2023/10/18 00:07:38;;;;;;;1.05;0.40;;;;;;;5.34;68.19;98785.66;5133472;27;20437;-62
2023/10/18 00:10:04;;;;;;;3.67;0.55;;;;;;;5.13;67.79;98744.69;5133567;27;20027;-61
2023/10/18 00:12:33;;;;;;;5.63;0.70;;;;;;;5.39;67.65;98786.16;5131992;27;20031;-62
2023/10/18 00:14:59;;;;;;;1.58;0.50;;;;;;;5.37;68.19;98780.13;5133623;27;20034;-62
2023/10/18 00:17:26;;;;;;;3.13;0.63;;;;;;;5.42;67.81;98785.94;5133839;27;20027;-60
2023/10/18 00:19:51;;;;;;;2.25;0.40;;;;;;;5.44;67.42;98789.31;5133342;27;20105;-61
2023/10/18 00:22:17;;;;;;;2.55;0.60;;;;;;;5.43;67.43;98782.31;5126474;27;20143;-62
2023/10/18 00:24:43;;;;;;;1.98;0.50;;;;;;;5.23;67.52;98749.31;5130983;28;20062;-61
2023/10/18 00:27:09;;;;;;;2.08;0.70;;;;;;;5.43;67.76;98788.47;5133235;27;20457;-63
2023/10/18 00:29:36;;;;;;;2.45;0.60;;;;;;;5.40;67.51;98790.50;5132945;27;20434;-63
2023/10/18 00:32:03;;;;;;;7.07;0.65;;;;;;;5.42;67.44;98801.84;5130834;28;20027;-61
2023/10/18 00:34:29;;;;;;;2.65;0.70;;;;;;;5.41;67.57;98789.53;5133101;28;20035;-61
2023/10/18 00:36:55;;;;;;;1.10;0.40;;;;;;;5.46;67.08;98800.66;5133509;27;20396;-63
2023/10/18 00:39:27;;;;;;;0.82;0.57;;;;;;;5.45;67.16;98802.47;5133327;28;20038;-62
2023/10/18 00:42:23;;;;;;;1.60;0.60;;;;;;;5.51;67.05;98805.63;5131709;27;20033;-61
2023/10/18 00:44:41;;;;;;;1.33;0.40;;;;;;;5.49;66.92;98804.91;5133228;28;20472;-62
2023/10/18 00:47:10;;;;;;;1.27;0.57;;;;;;;5.45;66.83;98813.09;5131277;27;20023;-62
2023/10/18 00:49:36;;;;;;;1.00;0.50;;;;;;;5.44;67.16;98805.22;5133266;27;20319;-61
2023/10/18 00:52:01;;;;;;;2.65;0.40;;;;;;;5.50;66.31;98796.78;5131522;28;20041;-62
2023/10/18 00:54:29;;;;;;;3.78;0.50;;;;;;;5.42;66.53;98793.88;5132610;28;20043;-60
2023/10/18 00:56:55;;;;;;;1.48;0.50;;;;;;;5.19;66.40;98759.31;5133166;27;20130;-61
2023/10/18 00:59:21;;;;;;;4.72;0.65;;;;;;;5.41;66.75;98795.69;5134390;27;20027;-62
2023/10/18 01:01:58;;;;;;;1.55;0.50;;;;;;;5.44;66.51;98802.59;5135272;27;20076;-62
2023/10/18 01:04:25;;;;;;;1.63;0.40;;;;;;;5.42;66.89;98794.72;5136550;27;20042;-62
2023/10/18 01:06:50;;;;;;;1.27;0.70;;;;;;;5.41;66.73;98805.47;5137156;27;20027;-62
2023/10/18 01:09:17;;;;;;;2.53;0.52;;;;;;;5.43;66.93;98815.03;5137103;27;20034;-60
2023/10/18 01:11:46;;;;;;;2.00;0.65;;;;;;;5.31;66.91;98787.59;5122766;27;20489;-62
2023/10/18 01:14:16;;;;;;;3.15;0.63;;;;;;;5.46;66.80;98819.25;5116379;28;20031;-61
2023/10/18 01:16:44;;;;;;;2.08;0.50;;;;;;;5.43;66.27;98808.84;5115403;28;20035;-61
2023/10/18 01:19:11;;;;;;;0.93;0.40;;;;;;;5.42;66.38;98809.81;5116405;28;20031;-61
2023/10/18 01:21:36;;;;;;;2.33;0.80;;;;;;;5.43;66.83;98816.81;5116847;27;20023;-61
2023/10/18 01:24:04;;;;;;;1.83;0.38;;;;;;;5.43;66.70;98816.81;5116770;28;20365;-61
2023/10/18 01:26:31;;;;;;;1.45;0.40;;;;;;;5.45;66.45;98814.88;5116331;28;20044;-61
2023/10/18 01:29:03;;;;;;;2.05;0.60;;;;;;;5.47;66.50;98818.28;5117220;27;20087;-62
2023/10/18 01:31:29;;;;;;;0.95;0.60;;;;;;;5.40;66.55;98803.78;5116535;27;20079;-62
2023/10/18 01:33:54;;;;;;;1.17;0.60;;;;;;;5.54;65.69;98821.31;5116165;28;20031;-62
2023/10/18 01:36:21;;;;;;;2.83;0.65;;;;;;;5.47;66.19;98823.59;5115953;28;20059;-61
2023/10/18 01:38:51;;;;;;;2.80;0.40;;;;;;;5.43;66.10;98824.78;5115784;27;20050;-62
2023/10/18 01:41:27;;;;;;;1.58;0.50;;;;;;;5.48;65.57;98825.28;5117319;27;20092;-62
2023/10/18 01:44:11;;;;;;;2.03;0.57;;;;;;;5.55;65.99;98823.88;5116634;27;20051;-61
2023/10/18 01:46:44;;;;;;;2.67;0.50;;;;;;;5.32;65.69;98802.56;5115451;28;20045;-62
2023/10/18 01:49:13;;;;;;;1.05;0.52;;;;;;;5.43;65.81;98828.31;5114837;28;20032;-62
2023/10/18 01:51:42;;;;;;;2.53;0.60;;;;;;;5.41;66.30;98821.41;5116710;27;20059;-63
2023/10/18 01:54:15;;;;;;;1.30;0.50;;;;;;;5.44;66.43;98832.66;5115105;28;20027;-63
2023/10/18 01:56:43;;;;;;;5.03;0.50;;;;;;;5.47;66.57;98836.84;5114291;28;20043;-63
2023/10/18 01:59:17;;;;;;;0.60;0.40;;;;;;;5.50;66.30;98839.28;5125672;27;20134;-62
2023/10/18 02:01:44;;;;;;;2.15;0.40;;;;;;;5.54;66.42;98830.09;5134021;27;20035;-61
2023/10/18 02:04:23;;;;;;;0.88;0.43;;;;;;;5.56;66.36;98833.53;5135703;27;20407;-62
2023/10/18 02:06:50;;;;;;;3.13;0.60;;;;;;;5.30;66.35;98783.25;5135943;27;20074;-62
2023/10/18 02:09:16;;;;;;;2.35;0.93;;;;;;;5.57;66.36;98835.22;5119080;27;20031;-63
2023/10/18 02:11:43;;;;;;;2.65;0.57;;;;;;;5.60;66.47;98839.44;5114313;27;20068;-63
2023/10/18 02:14:10;;;;;;;1.67;0.60;;;;;;;5.67;66.26;98845.13;5113938;27;20026;-64
2023/10/18 02:16:36;;;;;;;0.45;0.40;;;;;;;5.65;66.15;98836.44;5114178;28;20050;-63
2023/10/18 02:19:01;;;;;;;2.22;0.65;;;;;;;5.63;65.74;98841.03;5115594;27;20115;-64
2023/10/18 02:21:27;;;;;;;1.13;0.63;;;;;;;5.63;66.39;98838.38;5114819;28;20296;-61
2023/10/18 02:23:53;;;;;;;1.50;0.70;;;;;;;5.62;66.29;98842.81;5114144;28;20518;-61
2023/10/18 02:26:30;;;;;;;1.20;0.73;;;;;;;5.46;66.19;98814.78;5114943;28;20032;-62
2023/10/18 02:28:59;;;;;;;0.90;0.40;;;;;;;5.63;66.45;98846.31;5117366;27;20027;-62
2023/10/18 02:31:25;;;;;;;1.42;0.40;;;;;;;5.61;66.32;98843.78;5114874;28;20154;-62
2023/10/18 02:33:53;;;;;;;0.75;0.50;;;;;;;5.44;66.08;98807.88;5114597;28;20027;-61
2023/10/18 02:36:23;;;;;;;3.15;0.68;;;;;;;5.42;66.27;98801.84;5114710;28;20027;-61
2023/10/18 02:38:52;;;;;;;2.35;0.57;;;;;;;5.64;66.13;98832.91;5115099;27;20063;-61
2023/10/18 02:41:21;;;;;;;1.88;0.60;;;;;;;5.68;65.93;98833.53;5114684;28;20107;-62
2023/10/18 02:43:50;;;;;;;2.47;0.70;;;;;;;5.70;66.33;98847.53;5113817;28;20343;-62
2023/10/18 02:46:20;;;;;;;1.70;0.63;;;;;;;5.67;66.21;98839.81;5115006;27;20118;-62
2023/10/18 02:48:51;;;;;;;2.47;0.70;;;;;;;5.67;66.60;98832.72;5094131;28;20028;-62
2023/10/18 02:51:22;;;;;;;1.00;0.55;;;;;;;5.67;66.66;98837.16;5094030;28;20436;-62
2023/10/18 02:53:52;;;;;;;1.85;0.50;;;;;;;5.77;66.55;98842.63;5094034;28;20062;-60
2023/10/18 02:56:27;;;;;;;0.90;0.40;;;;;;;5.79;66.29;98836.25;5093979;28;20172;-61
2023/10/18 02:59:06;;;;;;;1.00;0.50;;;;;;;5.59;66.34;98805.88;5125754;27;20057;-62
2023/10/18 03:01:31;;;;;;;0.98;0.80;;;;;;;5.79;66.05;98836.25;5134737;27;20024;-62
2023/10/18 03:03:57;;;;;;;1.77;0.45;;;;;;;5.79;65.60;98833.59;5134678;27;20125;-62
2023/10/18 03:06:27;;;;;;;1.55;0.40;;;;;;;5.76;65.83;98831.13;5134747;27;20087;-62
2023/10/18 03:08:58;;;;;;;1.25;0.50;;;;;;;5.70;66.48;98836.91;5119457;27;20124;-63
2023/10/18 03:11:25;;;;;;;1.25;0.63;;;;;;;5.62;66.63;98829.53;5114121;28;20031;-62
2023/10/18 03:13:51;;;;;;;0.95;0.40;;;;;;;5.67;66.36;98842.47;5113903;28;20080;-61
2023/10/18 03:16:27;;;;;;;1.05;0.50;;;;;;;5.26;66.53;98787.06;5113716;28;20039;-62
2023/10/18 03:18:53;;;;;;;1.73;0.90;;;;;;;5.67;66.74;98848.66;5114425;27;20058;-62
2023/10/18 03:21:22;;;;;;;4.10;1.10;;;;;;;5.68;66.75;98844.16;5113015;28;20099;-62
2023/10/18 03:23:52;;;;;;;3.35;0.70;;;;;;;5.64;66.73;98832.09;5113480;28;20393;-63
2023/10/18 03:26:35;;;;;;;2.28;0.70;;;;;;;5.65;66.71;98836.44;5113673;28;20438;-62
2023/10/18 03:29:15;;;;;;;3.10;0.73;;;;;;;5.40;66.98;98801.97;5114565;27;20035;-62
2023/10/18 03:31:47;;;;;;;2.88;0.50;;;;;;;5.62;66.85;98845.47;5113680;28;20031;-61
2023/10/18 03:34:19;;;;;;;2.22;0.52;;;;;;;5.58;66.89;98839.56;5113497;28;20042;-62
2023/10/18 03:36:52;;;;;;;1.52;0.45;;;;;;;5.58;66.98;98839.56;5114895;27;20401;-61
2023/10/18 03:39:24;;;;;;;1.35;0.55;;;;;;;5.63;67.26;98838.38;5094122;28;20060;-61
2023/10/18 03:41:50;;;;;;;1.42;0.68;;;;;;;5.54;66.95;98827.47;5093204;28;20030;-62
2023/10/18 03:44:26;;;;;;;1.00;0.60;;;;;;;5.63;67.24;98833.06;5093186;28;20024;-62
2023/10/18 03:47:05;;;;;;;3.50;0.73;;;;;;;5.60;66.66;98831.47;5093164;28;20399;-61
2023/10/18 03:49:33;;;;;;;3.20;0.75;;;;;;;5.64;66.85;98853.34;5112783;27;20109;-62
2023/10/18 03:52:16;;;;;;;1.85;0.55;;;;;;;5.40;67.32;98811.75;5113277;28;20032;-64
2023/10/18 03:57:31;;;;;;;2.55;0.60;;;;;;;5.49;67.01;98831.44;5112733;27;20040;-64
2023/10/18 04:00:08;;;;;;;3.05;0.70;;;;;;;5.71;66.94;98862.50;5097387;27;20445;-62
2023/10/18 04:02:34;;;;;;;2.95;0.80;;;;;;;5.74;66.68;98862.28;5113332;28;20361;-62
2023/10/18 04:05:10;;;;;;;5.90;1.10;;;;;;;5.76;66.85;98863.00;5113381;28;20448;-62
2023/10/18 04:07:36;;;;;;;3.13;0.65;;;;;;;5.60;66.81;98831.47;5113857;28;20357;-63
2023/10/18 04:10:17;;;;;;;2.85;0.70;;;;;;;5.82;66.53;98865.22;5113205;28;20092;-62
2023/10/18 04:12:45;;;;;;;1.50;0.70;;;;;;;5.88;66.51;98869.19;5113266;28;20023;-61
2023/10/18 04:15:29;;;;;;;2.58;0.90;;;;;;;5.91;66.27;98876.09;5113453;28;20027;-62
2023/10/18 04:20:41;;;;;;;3.85;0.90;;;;;;;5.75;66.02;98843.59;5113782;28;20027;-63
2023/10/18 04:23:25;;;;;;;3.30;0.88;;;;;;;5.92;65.63;98876.00;5113323;28;20459;-62
2023/10/18 04:25:57;;;;;;;4.20;0.93;;;;;;;5.93;65.87;98874.16;5112687;28;20350;-63
2023/10/18 04:28:29;;;;;;;1.60;0.85;;;;;;;5.86;65.40;98864.00;5113847;28;20350;-63
2023/10/18 04:30:59;;;;;;;2.22;0.90;;;;;;;5.84;65.75;98859.78;5112859;28;20031;-62
2023/10/18 04:33:35;;;;;;;3.38;0.70;;;;;;;5.89;65.91;98871.75;5113737;28;20031;-63
2023/10/18 04:36:11;;;;;;;4.63;0.60;;;;;;;5.92;65.69;98875.13;5117181;27;20058;-63
2023/10/18 04:38:44;;;;;;;4.88;1.02;;;;;;;5.86;65.84;98871.97;5130307;27;20042;-63
2023/10/18 04:41:24;;;;;;;1.90;0.88;;;;;;;5.86;66.05;98869.31;5137934;27;20031;-62
2023/10/18 04:44:05;;;;;;;4.10;0.90;;;;;;;5.94;65.74;98878.50;5137596;27;20031;-62
2023/10/18 04:46:31;;;;;;;3.60;1.00;;;;;;;5.96;65.60;98882.75;5137382;27;20019;-61
2023/10/18 04:51:33;;;;;;;3.28;1.17;;;;;;;5.75;65.68;98850.69;5137441;27;20062;-63
2023/10/18 04:54:01;;;;;;;1.67;0.80;;;;;;;5.98;65.11;98883.47;5137265;27;20551;-62
2023/10/18 04:56:42;;;;;;;2.20;1.15;;;;;;;5.73;64.88;98842.84;5137650;27;20117;-62
2023/10/18 04:59:15;;;;;;;5.13;0.88;;;;;;;6.00;65.20;98886.00;5117727;27;20035;-62
2023/10/18 05:01:56;;;;;;;1.83;1.10;;;;;;;6.00;64.85;98880.69;5116120;28;20092;-62
2023/10/18 05:04:33;;;;;;;2.85;0.90;;;;;;;6.12;64.89;98902.84;5116701;28;20039;-62
2023/10/18 05:07:01;;;;;;;2.30;1.10;;;;;;;5.94;64.92;98865.22;5116200;27;20032;-63
2023/10/18 05:09:41;;;;;;;4.22;1.20;;;;;;;6.14;64.92;98898.25;5116625;28;20032;-62
2023/10/18 05:14:53;;;;;;;4.30;1.00;;;;;;;6.13;64.67;98897.44;5116942;28;20023;-61
2023/10/18 05:20:21;;;;;;;2.67;0.90;;;;;;;6.14;64.57;98909.75;5117201;27;20031;-62
2023/10/18 05:22:50;;;;;;;5.15;1.45;;;;;;;6.17;64.12;98904.19;5116249;28;20412;-62
2023/10/18 05:28:14;;;;;;;5.18;1.02;;;;;;;6.20;64.45;98911.09;5117110;27;20063;-62
2023/10/18 05:41:27;;;;;;;4.65;1.23;;;;;;;6.14;64.17;98920.38;5117249;27;20376;-62
2023/10/18 05:43:58;;;;;;;3.65;1.20;;;;;;;6.12;64.00;98916.13;5115492;28;20193;-62
2023/10/18 05:46:27;;;;;;;3.28;1.10;;;;;;;6.13;63.88;98924.00;5115295;28;20039;-63
2023/10/18 05:48:57;;;;;;;4.55;1.13;;;;;;;5.92;64.39;98888.41;5127919;27;20034;-62
2023/10/18 05:53:59;;;;;;;2.92;1.33;;;;;;;6.16;64.16;98907.81;5135913;27;20353;-63
2023/10/18 05:56:32;;;;;;;2.60;1.30;;;;;;;6.20;63.32;98907.56;5115608;27;20039;-63
2023/10/18 06:01:50;;;;;;;3.83;1.10;;;;;;;6.36;63.19;98924.03;5114763;28;20035;-62
2023/10/18 06:04:25;;;;;;;2.42;1.23;;;;;;;6.44;63.06;98924.28;5115641;28;20040;-61
2023/10/18 06:06:55;;;;;;;2.35;1.13;;;;;;;6.51;62.43;98922.00;5115248;28;20038;-62
2023/10/18 06:09:32;;;;;;;2.20;1.10;;;;;;;6.46;62.54;98925.00;5116553;27;20035;-63
2023/10/18 06:12:00;;;;;;;6.72;1.42;;;;;;;6.44;62.72;98921.63;5114218;28;20051;-62
2023/10/18 06:14:33;;;;;;;3.03;1.02;;;;;;;6.53;62.24;98920.06;5114852;28;20454;-62
2023/10/18 06:17:12;;;;;;;4.13;0.95;;;;;;;6.60;62.29;98931.91;5114134;27;20024;-62
2023/10/18 06:19:38;;;;;;;4.40;1.25;;;;;;;6.64;62.25;98931.69;5094743;28;20139;-63
2023/10/18 06:25:09;;;;;;;4.05;1.33;;;;;;;6.79;61.26;98926.97;5072331;28;20565;-62
2023/10/18 06:27:41;;;;;;;2.35;1.05;;;;;;;6.80;60.98;98926.81;5073173;28;20122;-62
2023/10/18 06:30:26;;;;;;;4.07;0.90;;;;;;;6.81;60.87;98922.34;5035618;28;20668;-62
2023/10/18 06:32:51;;;;;;;4.00;1.33;;;;;;;6.92;59.99;98917.00;5057963;28;20029;-62
2023/10/18 06:35:26;;;;;;;2.38;1.02;;;;;;;7.07;60.11;98920.25;5092586;28;20066;-62
2023/10/18 06:37:52;;;;;;;3.40;1.45;;;;;;;7.40;58.92;98923.81;5090905;28;20032;-63
2023/10/18 06:40:22;;;;;;;6.85;1.27;;;;;;;7.78;57.81;98921.63;5092693;28;20067;-62
2023/10/18 06:42:48;;;;;;;3.25;1.08;;;;;;;8.08;56.95;98925.31;5092192;28;20117;-62
2023/10/18 06:45:18;;;;;;;2.70;0.90;;;;;;;8.28;56.31;98917.44;5092263;28;20120;-62
2023/10/18 06:47:46;;;;;;;5.35;1.15;;;;;;;8.41;55.71;98922.56;5090368;28;20066;-62
2023/10/18 06:50:12;;;;;;;3.42;1.00;;;;;;;8.32;55.34;98876.19;5075270;28;20147;-63
2023/10/18 06:52:44;;;;;;;2.28;0.82;;;;;;;8.86;54.90;98914.25;5091970;28;20527;-62
2023/10/18 06:55:15;;;;;;;3.97;1.30;;;;;;;9.28;53.66;98928.38;5100424;27;20039;-63
2023/10/18 06:57:42;;;;;;;2.72;1.27;;;;;;;9.60;52.59;98917.44;5132266;27;20023;-63
2023/10/18 07:00:12;;;;;;;4.40;1.10;;;;;;;9.80;51.74;98930.00;5134616;27;20038;-62
2023/10/18 07:02:38;;;;;;;2.78;1.45;;;;;;;9.90;51.22;98914.78;5133808;27;20092;-63
2023/10/18 07:05:04;;;;;;;3.38;1.00;;;;;;;10.11;50.28;98927.97;5134844;27;20399;-62
2023/10/18 07:07:31;;;;;;;5.25;1.10;;;;;;;10.12;50.17;98928.84;5131613;27;20042;-61
2023/10/18 07:09:57;;;;;;;5.00;1.23;;;;;;;10.00;49.83;98922.78;5133386;27;20046;-62
2023/10/18 07:12:44;;;;;;;2.53;1.60;;;;;;;9.96;50.05;98929.41;5134961;27;20342;-62
2023/10/18 07:15:15;;;;;;;3.92;1.08;;;;;;;9.85;50.17;98927.72;5134056;27;20039;-63
2023/10/18 07:17:41;;;;;;;2.85;1.35;;;;;;;9.80;50.20;98936.16;5132798;27;20468;-62
2023/10/18 07:20:15;;;;;;;4.95;1.17;;;;;;;9.82;49.70;98926.19;5132043;27;20036;-65
2023/10/18 07:22:45;;;;;;;4.65;1.17;;;;;;;10.07;49.76;98931.91;5113705;27;20050;-59
2023/10/18 07:25:26;;;;;;;3.53;1.20;;;;;;;10.45;49.01;98924.84;5118979;27;20035;-56
2023/10/18 07:27:55;;;;;;;3.45;1.15;;;;;;;11.34;46.64;98919.94;5126934;27;20047;-63
2023/10/18 07:30:29;;;;;;;1.52;0.93;;;;;;;11.85;45.39;98914.03;5108327;28;20096;-63
2023/10/18 07:32:57;;;;;;;2.38;1.20;;;;;;;12.13;44.53;98918.44;5116986;27;20028;-60
2023/10/18 07:35:26;;;;;;;4.60;1.42;;;;;;;12.23;44.39;98918.34;5113825;28;20027;-53
2023/10/18 07:37:55;;;;;;;4.88;1.63;;;;;;;12.32;44.37;98922.81;5122208;27;20027;-57
2023/10/18 07:40:33;;;;;;;3.88;1.10;;;;;;;12.15;43.38;98890.47;5133805;27;20099;-53
2023/10/18 07:42:59;;;;;;;2.03;1.20;;;;;;;12.46;43.92;98929.44;5130297;27;20019;-62
2023/10/18 07:45:27;;;;;;;2.75;1.10;;;;;;;12.46;42.65;98932.13;5121745;27;20034;-60
2023/10/18 07:47:54;;;;;;;1.55;1.00;;;;;;;12.39;42.69;98931.91;5133378;27;20035;-55
2023/10/18 07:50:41;;;;;;;1.88;0.80;;;;;;;12.17;43.29;98919.81;5133685;27;20326;-62
2023/10/18 07:53:11;;;;;;;3.22;0.88;;;;;;;12.03;43.59;98932.81;5132868;27;20042;-61
2023/10/18 07:55:36;;;;;;;5.20;1.20;;;;;;;11.39;44.09;98887.28;5129515;27;20019;-61
2023/10/18 07:58:24;;;;;;;2.50;0.80;;;;;;;11.28;45.00;98941.94;5122162;27;20039;-61
2023/10/18 08:03:29;;;;;;;2.95;1.02;;;;;;;10.57;46.20;98938.91;5113233;28;20043;-61
2023/10/18 08:05:56;;;;;;;2.92;1.00;;;;;;;10.34;46.13;98951.72;5120483;27;20063;-60
2023/10/18 08:08:24;;;;;;;2.20;1.00;;;;;;;10.03;47.00;98922.50;5133479;27;20494;-62
2023/10/18 08:10:55;;;;;;;3.97;1.05;;;;;;;10.15;47.55;98949.94;5133426;27;20035;-60
2023/10/18 08:13:28;;;;;;;1.75;0.80;;;;;;;10.07;46.84;98942.63;5117944;27;20027;-62
2023/10/18 08:15:56;;;;;;;3.65;1.13;;;;;;;9.84;47.06;98952.78;5112497;28;20522;-61
2023/10/18 08:21:07;;;;;;;2.95;0.90;;;;;;;9.46;48.62;98945.44;5107519;28;20042;-63
2023/10/18 08:26:03;;;;;;;3.97;0.88;;;;;;;9.18;49.76;98950.56;5112913;28;20095;-60
2023/10/18 08:28:40;;;;;;;4.88;0.80;;;;;;;9.06;50.26;98951.69;5112119;28;20034;-61
2023/10/18 08:31:32;;;;;;;3.05;1.23;;;;;;;9.23;50.31;98960.00;5111632;28;20028;-59
2023/10/18 08:34:10;;;;;;;5.05;1.08;;;;;;;9.26;50.23;98949.91;5113552;27;20035;-61
2023/10/18 08:36:38;;;;;;;3.05;1.20;;;;;;;9.10;49.74;98947.75;5111554;28;20039;-63
2023/10/18 08:39:04;;;;;;;5.82;1.17;;;;;;;9.05;49.98;98942.81;5112387;28;20036;-62
2023/10/18 08:41:36;;;;;;;2.05;1.55;;;;;;;9.07;50.46;98953.38;5112450;28;20028;-61
2023/10/18 08:44:16;;;;;;;3.25;1.52;;;;;;;9.09;51.01;98958.56;5113278;28;20440;-60
2023/10/18 08:47:04;;;;;;;6.38;1.40;;;;;;;9.00;51.44;98953.06;5113856;28;20031;-61
2023/10/18 08:49:33;;;;;;;4.28;1.70;;;;;;;8.87;51.51;98950.63;5112621;28;20051;-62
2023/10/18 08:52:08;;;;;;;2.50;1.60;;;;;;;8.69;51.13;98950.41;5112751;28;20077;-62
2023/10/18 08:54:39;;;;;;;2.78;1.45;;;;;;;8.65;51.36;98956.97;5112224;28;20076;-64
2023/10/18 08:57:24;;;;;;;3.70;1.50;;;;;;;8.63;52.26;98947.44;5112212;28;20148;-61
2023/10/18 08:59:51;;;;;;;3.65;1.50;;;;;;;8.43;52.30;98942.78;5112767;28;20089;-61
2023/10/18 09:02:18;;;;;;;2.90;1.20;;;;;;;8.30;53.04;98944.84;5112060;28;20435;-63
2023/10/18 09:04:58;;;;;;;2.35;1.02;;;;;;;8.28;52.84;98954.78;5112496;28;20028;-64
2023/10/18 09:07:44;;;;;;;4.53;1.08;;;;;;;8.13;53.14;98939.09;5112506;28;20404;-62
2023/10/18 09:15:29;;;;;;;3.58;1.23;;;;;;;8.29;53.17;98935.16;5112187;28;20031;-63
2023/10/18 09:17:56;;;;;;;3.53;1.48;;;;;;;8.35;52.84;98939.13;5112103;28;20051;-57
2023/10/18 09:20:27;;;;;;;9.43;1.83;;;;;;;8.40;53.28;98940.38;5131086;27;20034;-61
2023/10/18 09:22:53;;;;;;;3.10;1.30;;;;;;;8.54;52.59;98943.72;5137139;27;20072;-63
2023/10/18 09:25:24;;;;;;;2.67;1.42;;;;;;;8.64;52.24;98944.63;5135041;27;20045;-62
2023/10/18 09:27:51;;;;;;;2.47;1.20;;;;;;;8.70;51.62;98943.25;5136375;27;20027;-60
2023/10/18 09:30:20;;;;;;;1.30;0.90;;;;;;;8.75;51.38;98935.66;5134384;27;20357;-63
2023/10/18 09:32:47;;;;;;;2.92;1.23;;;;;;;8.88;50.93;98933.63;5136175;27;20031;-64
2023/10/18 09:35:15;;;;;;;2.33;1.00;;;;;;;9.08;50.55;98941.72;5132162;27;20072;-63
2023/10/18 09:37:40;;;;;;;2.25;1.23;;;;;;;9.16;50.29;98938.31;5115599;28;20031;-62
2023/10/18 09:40:07;;;;;;;2.38;0.90;;;;;;;9.26;50.26;98941.88;5115179;27;20085;-66
2023/10/18 09:42:32;;;;;;;4.78;1.10;;;;;;;9.15;50.10;98917.94;5115562;28;20028;-62
2023/10/18 09:44:59;;;;;;;3.15;1.13;;;;;;;9.32;49.74;98927.16;5115424;28;20038;-55
2023/10/18 09:47:26;;;;;;;1.20;0.80;;;;;;;9.26;49.82;98933.00;5115621;28;20042;-62
2023/10/18 09:49:55;;;;;;;2.67;0.90;;;;;;;9.10;50.01;98937.06;5115416;28;20032;-61
2023/10/18 09:52:32;;;;;;;3.58;1.20;;;;;;;8.95;50.79;98936.63;5118756;27;20023;-63
2023/10/18 09:55:01;;;;;;;2.80;1.23;;;;;;;8.79;50.46;98920.25;5118721;27;20027;-63
2023/10/18 09:57:35;;;;;;;4.63;1.27;;;;;;;8.94;50.83;98932.25;5135953;27;20031;-62
2023/10/18 10:00:11;;;;;;;2.45;0.80;;;;;;;9.04;50.18;98929.59;5125390;27;20068;-64
2023/10/18 10:02:39;;;;;;;2.50;1.13;;;;;;;9.07;50.55;98928.47;5114298;28;20028;-62
2023/10/18 10:05:24;;;;;;;1.20;0.80;;;;;;;9.09;50.23;98922.03;5114689;28;20114;-61
2023/10/18 10:08:06;;;;;;;1.77;1.20;;;;;;;9.33;49.84;98923.50;5115068;28;20050;-63
2023/10/18 10:10:45;;;;;;;3.30;1.10;;;;;;;9.51;48.92;98937.00;5115263;28;20035;-63
2023/10/18 10:13:18;;;;;;;1.73;1.20;;;;;;;9.73;49.51;98919.00;5114913;28;20085;-63
2023/10/18 10:15:54;;;;;;;3.92;1.35;;;;;;;9.63;48.99;98886.94;5118558;27;20031;-63
2023/10/18 10:18:30;;;;;;;1.80;1.02;;;;;;;9.94;48.43;98918.03;5114769;28;20411;-60
2023/10/18 10:20:58;;;;;;;3.65;1.75;;;;;;;9.63;47.96;98894.97;5114632;28;20028;-62
2023/10/18 10:23:24;;;;;;;4.63;1.52;;;;;;;9.75;47.99;98923.22;5113672;28;20047;-63
2023/10/18 10:26:16;;;;;;;4.45;1.75;;;;;;;9.88;49.08;98922.09;5113362;28;20370;-64
2023/10/18 10:31:55;;;;;;;5.28;1.92;;;;;;;9.87;49.74;98928.44;5066445;27;20051;-62
2023/10/18 10:34:26;;;;;;;3.90;2.10;;;;;;;9.76;49.15;98921.41;5093848;28;20733;-62
2023/10/18 10:37:11;;;;;;;2.90;1.98;;;;;;;9.73;49.56;98929.72;5094124;28;20048;-64
2023/10/18 10:39:44;;;;;;;3.42;2.17;;;;;;;9.58;50.18;98926.59;5106548;27;20386;-63
2023/10/18 10:45:38;;;;;;;3.92;1.95;;;;;;;9.56;50.94;98926.72;5111126;28;20052;-62
2023/10/18 10:50:53;;;;;;;4.65;2.00;;;;;;;9.36;50.80;98943.72;5113664;28;20044;-63
2023/10/18 10:53:33;;;;;;;2.55;1.75;;;;;;;9.41;51.14;98930.81;5131450;27;20042;-63
2023/10/18 10:56:17;;;;;;;2.90;1.67;;;;;;;9.57;50.99;98939.13;5134623;27;20027;-65
2023/10/18 11:01:40;;;;;;;4.28;1.73;;;;;;;9.61;50.37;98935.16;5107935;28;20115;-64
2023/10/18 11:04:14;;;;;;;2.80;1.50;;;;;;;9.55;50.65;98927.72;5103499;28;20381;-64
2023/10/18 11:06:43;;;;;;;4.07;1.90;;;;;;;9.47;50.74;98925.75;5093246;28;20028;-62
2023/10/18 11:09:16;;;;;;;5.28;1.85;;;;;;;9.48;50.59;98930.09;5110455;27;20032;-60
2023/10/18 11:11:45;;;;;;;3.45;2.10;;;;;;;9.29;50.61;98895.38;5090791;28;20032;-62
2023/10/18 11:14:18;;;;;;;5.63;1.88;;;;;;;9.50;49.97;98929.97;5101661;28;20031;-63
2023/10/18 11:16:46;;;;;;;4.40;1.88;;;;;;;9.29;50.29;98885.50;5111842;27;20110;-64
2023/10/18 11:19:15;;;;;;;6.03;1.98;;;;;;;9.48;50.31;98932.78;5129619;27;20031;-63
2023/10/18 11:21:42;;;;;;;2.22;1.92;;;;;;;9.45;50.98;98929.56;5131828;27;20043;-62
2023/10/18 11:24:11;;;;;;;3.97;2.08;;;;;;;9.37;51.33;98935.59;5130542;27;20573;-58
2023/10/18 11:26:45;;;;;;;5.70;2.30;;;;;;;9.20;51.72;98926.41;5132706;27;20515;-63
2023/10/18 11:29:12;;;;;;;4.55;2.75;;;;;;;9.18;52.12;98928.38;5124436;27;20020;-62
2023/10/18 11:31:42;;;;;;;5.43;2.30;;;;;;;9.12;52.21;98928.91;5111752;28;20104;-62
2023/10/18 11:34:09;;;;;;;5.03;2.42;;;;;;;9.21;52.03;98930.78;5117197;27;20134;-65
2023/10/18 11:36:38;;;;;;;5.38;2.72;;;;;;;9.30;52.20;98921.94;5113617;28;20059;-65
2023/10/18 11:41:42;;;;;;;6.45;1.80;;;;;;;9.45;50.99;98913.53;5113502;28;20321;-63
2023/10/18 11:44:20;;;;;;;3.13;1.70;;;;;;;9.28;50.84;98881.16;5113287;28;20032;-63
2023/10/18 11:46:49;;;;;;;2.38;1.38;;;;;;;9.50;50.89;98913.94;5116439;27;20035;-62
2023/10/18 11:49:19;;;;;;;4.30;1.70;;;;;;;9.56;51.59;98913.38;5113434;27;20035;-63
2023/10/18 11:51:54;;;;;;;5.75;2.10;;;;;;;9.63;51.65;98917.16;5111806;28;20028;-64
2023/10/18 11:54:36;;;;;;;3.90;2.40;;;;;;;9.63;52.31;98917.16;5095414;28;20087;-63
2023/10/18 11:57:07;;;;;;;5.13;2.50;;;;;;;9.55;52.16;98911.69;5112424;28;20473;-64
2023/10/18 11:59:51;;;;;;;4.07;2.20;;;;;;;9.54;52.71;98911.84;5113053;28;20023;-64
2023/10/18 12:02:16;;;;;;;5.82;2.17;;;;;;;9.30;53.77;98908.56;5112811;28;20023;-65
2023/10/18 12:04:44;;;;;;;4.10;2.05;;;;;;;9.07;53.41;98873.28;5122740;27;20317;-67
2023/10/18 12:07:13;;;;;;;2.95;1.98;;;;;;;9.21;54.20;98913.91;5126709;27;20147;-65
2023/10/18 12:09:43;;;;;;;5.55;1.80;;;;;;;9.15;53.85;98909.94;5112906;28;20063;-65
2023/10/18 12:12:12;;;;;;;2.63;1.70;;;;;;;9.08;53.58;98909.66;5113003;28;20434;-65
2023/10/18 12:14:41;;;;;;;5.60;1.77;;;;;;;9.07;54.36;98902.63;5113270;28;20457;-65
2023/10/18 12:17:07;;;;;;;3.00;1.65;;;;;;;9.09;54.19;98910.50;5112452;28;20036;-63
2023/10/18 12:19:35;;;;;;;2.58;1.73;;;;;;;9.15;54.21;98905.47;5126479;27;20035;-66
2023/10/18 12:22:01;;;;;;;2.72;2.00;;;;;;;9.24;54.57;98898.44;5130232;27;20036;-65
2023/10/18 12:24:27;;;;;;;4.88;2.15;;;;;;;9.16;54.04;98868.91;5133789;28;20107;-67
2023/10/18 12:26:56;;;;;;;3.67;2.05;;;;;;;9.26;54.00;98880.44;5133030;27;20031;-67
2023/10/18 12:29:28;;;;;;;3.53;2.13;;;;;;;9.44;53.77;98898.47;5132292;28;20449;-66
2023/10/18 12:31:57;;;;;;;3.40;1.65;;;;;;;9.25;53.65;98872.56;5119500;28;20431;-65
2023/10/18 12:34:28;;;;;;;2.55;1.80;;;;;;;9.40;53.67;98892.56;5116512;28;20349;-65
2023/10/18 12:36:56;;;;;;;3.58;2.03;;;;;;;9.41;53.52;98915.63;5112891;28;20031;-64
2023/10/18 12:39:22;;;;;;;6.47;2.20;;;;;;;9.27;54.12;98908.00;5112932;28;20335;-64
2023/10/18 12:41:53;;;;;;;3.42;2.05;;;;;;;9.25;54.60;98915.31;5112344;28;20088;-63
2023/10/18 12:44:19;;;;;;;2.25;1.60;;;;;;;9.13;54.95;98904.75;5101005;28;20050;-63
2023/10/18 12:46:45;;;;;;;2.13;1.65;;;;;;;9.09;54.81;98918.50;5112043;28;20430;-64
2023/10/18 12:49:11;;;;;;;7.20;2.72;;;;;;;8.98;54.85;98917.66;5111679;28;20031;-62
2023/10/18 12:51:42;;;;;;;2.53;1.75;;;;;;;8.92;55.50;98910.16;5112305;28;20116;-63
2023/10/18 12:54:09;;;;;;;2.53;1.50;;;;;;;8.89;55.93;98915.78;5095347;28;20035;-61
2023/10/18 12:56:38;;;;;;;2.03;1.45;;;;;;;8.59;56.43;98867.66;5115988;28;20038;-64
2023/10/18 13:01:42;;;;;;;2.60;2.00;;;;;;;8.78;57.09;98905.22;5113771;28;20079;-64
2023/10/18 13:04:08;;;;;;;2.72;2.00;;;;;;;8.59;57.73;98878.34;5114499;28;20503;-63
2023/10/18 13:06:53;;;;;;;6.75;2.25;;;;;;;8.76;57.29;98911.53;5115538;27;20028;-63